Time;durP1;ratioP1;P1;durP2;ratioP2;P2;SDS_P1;SDS_P2;PMS_P1;PMS_P2;Temp;Humidity;BMP_temperature;BMP_pressure;BME280_temperature;BME280_humidity;BME280_pressure;Samples;Min_cycle;Max_cycle;Signal;HPM_P1;HPM_P2
2023/05/05 00:00:12;;;;;;;5.47;4.63;;;;;;;14.33;81.43;100364.56;6286959;22;20038;-92
2023/05/05 00:02:41;;;;;;;6.50;5.15;;;;;;;14.10;82.45;100338.53;6313312;22;20452;-91
2023/05/05 00:05:08;;;;;;;6.85;5.20;;;;;;;14.19;83.35;100353.06;6294479;22;20031;-91
2023/05/05 00:07:35;;;;;;;10.52;5.65;;;;;;;14.20;84.50;100357.44;6307774;22;20023;-92
2023/05/05 00:10:04;;;;;;;6.88;5.65;;;;;;;13.93;87.43;100328.94;6307909;22;20007;-91
2023/05/05 00:12:31;;;;;;;7.15;5.40;;;;;;;14.01;87.88;100357.72;6288769;22;20015;-92
2023/05/05 00:14:58;;;;;;;8.93;5.28;;;;;;;13.98;88.16;100363.28;6305950;22;20080;-91
2023/05/05 00:17:29;;;;;;;7.63;5.43;;;;;;;13.78;88.77;100343.19;6308868;22;20031;-90
2023/05/05 00:19:56;;;;;;;7.28;5.38;;;;;;;13.88;89.57;100362.97;6333708;22;20083;-90
2023/05/05 00:22:22;;;;;;;9.18;5.43;;;;;;;13.85;90.53;100352.50;6299211;22;20019;-91
2023/05/05 00:24:49;;;;;;;8.40;5.72;;;;;;;13.82;90.93;100346.53;6295186;22;20019;-91
2023/05/05 00:27:20;;;;;;;11.23;5.60;;;;;;;13.92;90.68;100358.31;6326891;22;20019;-90
2023/05/05 00:29:49;;;;;;;7.28;5.25;;;;;;;13.81;90.81;100355.47;6300259;22;20077;-91
2023/05/05 00:32:16;;;;;;;7.72;5.18;;;;;;;13.79;91.59;100362.69;6324086;22;20019;-91
2023/05/05 00:34:45;;;;;;;8.30;5.40;;;;;;;13.68;91.66;100340.25;6332717;22;20048;-91
2023/05/05 00:37:13;;;;;;;6.70;5.13;;;;;;;13.80;90.86;100343.09;6299785;22;20027;-91
2023/05/05 00:39:42;;;;;;;;;;;;;;;13.90;89.56;100352.22;6317451;22;20047;-91
2023/05/05 00:42:09;;;;;;;8.10;5.38;;;;;;;13.87;89.69;100357.72;6289533;22;19934;-91
2023/05/05 00:44:39;;;;;;;7.57;5.22;;;;;;;13.83;89.90;100345.56;6293805;22;20015;-92
2023/05/05 00:47:11;;;;;;;7.25;5.28;;;;;;;13.69;89.68;100320.63;6289014;22;20106;-92
2023/05/05 00:49:42;;;;;;;6.32;5.03;;;;;;;13.81;90.25;100350.13;6287735;22;20302;-92
2023/05/05 00:52:10;;;;;;;8.48;5.60;;;;;;;13.81;90.12;100350.13;6314376;22;20015;-92
2023/05/05 00:54:37;;;;;;;6.32;4.75;;;;;;;13.85;89.67;100346.34;6286194;22;20289;-91
2023/05/05 00:57:09;;;;;;;6.45;4.90;;;;;;;13.91;89.22;100337.97;6293054;22;20011;-91
2023/05/05 00:59:37;;;;;;;6.68;4.82;;;;;;;13.88;87.35;100335.47;6295850;22;20022;-90
2023/05/05 01:02:04;;;;;;;5.72;4.43;;;;;;;13.92;85.68;100331.69;6272417;22;20015;-91
2023/05/05 01:04:33;;;;;;;6.80;4.72;;;;;;;13.99;84.32;100346.34;6293132;22;20019;-91
2023/05/05 01:07:47;;;;;;;7.05;5.03;;;;;;;14.05;84.49;100345.94;6285893;22;20021;-91
2023/05/05 01:10:35;;;;;;;8.88;4.72;;;;;;;13.86;85.05;100306.28;6286969;22;20015;-91
2023/05/05 01:13:31;;;;;;;6.45;4.75;;;;;;;14.14;84.67;100342.72;6289698;22;20015;-92
2023/05/05 01:16:10;;;;;;;6.43;4.43;;;;;;;14.17;83.34;100339.00;6294900;22;20361;-92
2023/05/05 01:18:48;;;;;;;6.88;4.40;;;;;;;14.14;82.43;100331.22;6307554;22;20418;-92
2023/05/05 01:21:45;;;;;;;7.35;4.43;;;;;;;14.12;82.99;100333.13;6332832;22;20036;-90
2023/05/05 01:24:31;;;;;;;6.20;4.20;;;;;;;14.12;81.69;100325.13;6273073;22;20015;-91
2023/05/05 01:27:26;;;;;;;5.13;4.47;;;;;;;14.11;81.69;100331.41;6293103;22;20007;-90
2023/05/05 01:30:30;;;;;;;5.80;4.50;;;;;;;14.14;83.13;100323.25;6290173;22;20015;-90
2023/05/05 01:33:04;;;;;;;5.90;4.40;;;;;;;14.11;82.13;100320.75;6287897;22;20018;-90
2023/05/05 01:35:44;;;;;;;5.57;4.70;;;;;;;14.02;81.53;100309.72;6288162;22;20425;-90
2023/05/05 01:38:18;;;;;;;5.88;4.50;;;;;;;14.09;81.90;100323.50;6317366;22;20103;-90
2023/05/05 01:40:50;;;;;;;6.20;4.30;;;;;;;13.92;82.51;100295.28;6290710;22;20026;-89
2023/05/05 01:43:20;;;;;;;6.03;4.55;;;;;;;13.89;81.98;100290.13;6269138;22;20034;-90
2023/05/05 01:45:48;;;;;;;5.35;4.40;;;;;;;13.98;81.92;100310.03;6295090;22;20106;-90
2023/05/05 01:48:18;;;;;;;6.47;4.47;;;;;;;13.97;81.43;100303.00;6292262;22;20023;-90
2023/05/05 01:50:46;;;;;;;5.38;4.72;;;;;;;13.77;81.54;100274.94;6294027;22;20027;-90
2023/05/05 01:53:16;;;;;;;7.88;4.10;;;;;;;13.90;82.14;100304.31;6322168;22;20011;-90
2023/05/05 01:55:45;;;;;;;8.98;4.78;;;;;;;13.84;82.41;100283.41;6293335;22;20029;-90
2023/05/05 01:58:14;;;;;;;7.22;4.70;;;;;;;13.91;80.94;100295.38;6322758;22;20045;-90
2023/05/05 02:00:43;;;;;;;5.88;4.20;;;;;;;13.65;79.93;100249.09;6316424;22;20297;-90
2023/05/05 02:03:12;;;;;;;4.93;4.30;;;;;;;13.95;79.86;100305.75;6289382;22;20011;-90
2023/05/05 02:05:43;;;;;;;6.70;4.50;;;;;;;13.96;79.52;100304.78;6334873;22;20019;-90
2023/05/05 02:08:11;;;;;;;5.85;4.47;;;;;;;13.96;78.56;100293.28;6308181;22;20066;-90
2023/05/05 02:10:44;;;;;;;6.72;4.38;;;;;;;14.03;77.97;100307.91;6308933;22;20015;-90
2023/05/05 02:13:14;;;;;;;6.38;4.93;;;;;;;13.98;77.16;100313.53;6308909;22;20045;-88
2023/05/05 02:15:42;;;;;;;6.55;4.60;;;;;;;13.88;78.43;100314.19;6304356;22;20011;-91
2023/05/05 02:18:13;;;;;;;8.35;4.95;;;;;;;13.89;80.26;100327.41;6330309;22;20023;-90
2023/05/05 02:20:53;;;;;;;5.93;5.10;;;;;;;13.78;83.78;100326.38;6280660;22;20048;-90
2023/05/05 02:23:20;;;;;;;7.82;4.97;;;;;;;13.70;86.18;100329.47;6332295;22;20011;-90
2023/05/05 02:25:56;;;;;;;7.07;5.53;;;;;;;13.61;89.31;100333.56;6281321;22;20058;-90
2023/05/05 02:28:40;;;;;;;7.93;5.57;;;;;;;13.40;92.23;100318.88;6326404;22;20347;-89
2023/05/05 02:31:09;;;;;;;9.10;5.78;;;;;;;13.22;94.31;100314.69;6317566;22;20091;-89
2023/05/05 02:33:38;;;;;;;6.63;5.68;;;;;;;13.13;97.02;100333.78;6317209;22;20023;-90
2023/05/05 02:36:22;;;;;;;6.43;5.82;;;;;;;13.03;96.83;100345.91;6289385;22;20007;-91
2023/05/05 02:38:56;;;;;;;8.45;5.57;;;;;;;12.88;98.26;100340.53;6323584;22;20011;-90
2023/05/05 02:41:26;;;;;;;10.63;5.85;;;;;;;12.68;99.53;100324.84;6304677;22;20003;-89
2023/05/05 02:43:58;;;;;;;7.35;5.85;;;;;;;12.69;100.00;100341.66;6283997;22;20034;-90
2023/05/05 02:46:31;;;;;;;9.80;6.55;;;;;;;12.48;100.00;100320.66;6332443;22;20049;-90
2023/05/05 02:48:58;;;;;;;7.28;5.97;;;;;;;12.35;100.00;100316.13;6307725;22;20035;-91
2023/05/05 02:51:29;;;;;;;8.05;5.90;;;;;;;12.56;100.00;100352.13;6334812;22;20018;-91
2023/05/05 02:53:59;;;;;;;6.93;5.80;;;;;;;12.40;100.00;100330.00;6309568;22;20011;-91
2023/05/05 02:56:40;;;;;;;6.72;5.55;;;;;;;12.52;100.00;100350.56;6303152;22;20019;-92
2023/05/05 02:59:25;;;;;;;9.98;6.38;;;;;;;12.55;100.00;100345.09;6324288;22;20339;-92
2023/05/05 03:02:16;;;;;;;7.78;6.35;;;;;;;12.60;100.00;100354.50;6290890;22;20094;-91
2023/05/05 03:05:19;;;;;;;10.57;6.22;;;;;;;12.50;100.00;100328.53;6288248;22;20064;-91
2023/05/05 03:08:07;;;;;;;8.32;6.35;;;;;;;12.52;100.00;100329.31;6281224;22;20013;-91
2023/05/05 03:10:42;;;;;;;9.32;6.57;;;;;;;12.69;100.00;100350.47;6292430;22;20086;-91
2023/05/05 03:13:10;;;;;;;9.45;5.88;;;;;;;12.66;100.00;100358.63;6290635;22;20011;-92
2023/05/05 03:15:44;;;;;;;9.82;6.88;;;;;;;12.48;100.00;100336.59;6288355;22;20011;-91
2023/05/05 03:18:16;;;;;;;7.70;6.28;;;;;;;12.59;100.00;100346.66;6287392;22;20089;-91
2023/05/05 03:20:45;;;;;;;8.35;6.38;;;;;;;12.76;100.00;100364.25;6286110;22;20023;-90
2023/05/05 03:23:17;;;;;;;7.82;6.30;;;;;;;12.83;100.00;100355.88;6286503;22;20074;-91
2023/05/05 03:25:47;;;;;;;9.52;6.50;;;;;;;12.86;100.00;100363.69;6313885;22;20015;-90
2023/05/05 03:28:16;;;;;;;6.70;5.70;;;;;;;12.78;100.00;100347.28;6312167;22;20058;-91
2023/05/05 03:30:47;;;;;;;9.10;6.13;;;;;;;12.94;100.00;100353.44;6286408;22;20015;-92
2023/05/05 03:33:15;;;;;;;10.35;6.22;;;;;;;12.85;100.00;100332.72;6286702;22;20041;-91
2023/05/05 03:35:46;;;;;;;6.53;5.68;;;;;;;13.09;100.00;100351.72;6260204;22;20012;-90
2023/05/05 03:38:15;;;;;;;7.35;6.00;;;;;;;13.14;100.00;100343.47;6286611;22;20019;-93
2023/05/05 03:40:42;;;;;;;7.35;5.57;;;;;;;13.24;100.00;100344.66;6286715;22;20077;-92
2023/05/05 03:43:10;;;;;;;7.55;6.13;;;;;;;13.16;100.00;100338.97;6285635;22;20011;-91
2023/05/05 03:45:37;;;;;;;8.02;5.65;;;;;;;13.10;100.00;100331.28;6286322;22;20019;-91
2023/05/05 03:48:11;;;;;;;7.78;6.03;;;;;;;13.15;100.00;100353.19;6289686;22;20031;-91
2023/05/05 03:50:39;;;;;;;11.60;5.90;;;;;;;13.07;100.00;100363.38;6287157;22;20007;-90
2023/05/05 03:53:06;;;;;;;8.82;5.72;;;;;;;12.86;100.00;100345.06;6313593;22;20018;-93
2023/05/05 03:55:32;;;;;;;10.00;5.70;;;;;;;12.93;100.00;100351.72;6313786;22;20049;-91
2023/05/05 03:58:03;;;;;;;10.43;5.85;;;;;;;12.91;100.00;100352.75;6287928;22;20092;-89
2023/05/05 04:00:29;;;;;;;8.52;6.22;;;;;;;12.93;100.00;100366.81;6321801;22;20003;-89
2023/05/05 04:02:56;;;;;;;6.75;5.72;;;;;;;12.90;100.00;100356.41;6333044;22;20090;-89
2023/05/05 04:05:23;;;;;;;8.85;5.32;;;;;;;12.98;100.00;100352.34;6299394;22;20418;-90
2023/05/05 04:07:51;;;;;;;7.57;5.90;;;;;;;12.97;100.00;100355.94;6294633;22;20011;-91
2023/05/05 04:10:18;;;;;;;10.20;6.32;;;;;;;12.80;100.00;100331.28;6293093;22;20038;-90
2023/05/05 04:12:46;;;;;;;7.70;6.18;;;;;;;12.97;100.00;100352.41;6316721;22;20069;-89
2023/05/05 04:15:13;;;;;;;11.15;6.22;;;;;;;12.99;100.00;100355.84;6280340;22;20014;-89
2023/05/05 04:17:39;;;;;;;11.93;6.80;;;;;;;12.96;100.00;100359.53;6306823;22;20003;-93
2023/05/05 04:20:08;;;;;;;9.10;6.15;;;;;;;12.71;100.00;100318.53;6294331;22;20038;-92
2023/05/05 04:22:39;;;;;;;11.05;6.50;;;;;;;12.81;100.00;100346.28;6263429;22;20015;-91
2023/05/05 04:25:06;;;;;;;7.22;6.07;;;;;;;12.78;100.00;100355.25;6315333;22;20019;-92
2023/05/05 04:27:33;;;;;;;8.50;6.30;;;;;;;12.78;100.00;100357.94;6320915;22;20070;-91
2023/05/05 04:30:06;;;;;;;10.30;6.20;;;;;;;12.80;100.00;100357.84;6300323;22;20468;-90
2023/05/05 04:32:36;;;;;;;8.43;6.67;;;;;;;12.64;100.00;100333.94;6300890;22;20066;-90
2023/05/05 04:35:07;;;;;;;8.35;6.10;;;;;;;12.73;100.00;100365.31;6332205;22;20019;-93
2023/05/05 04:37:38;;;;;;;10.82;6.85;;;;;;;12.67;100.00;100362.13;6299881;22;20073;-93
2023/05/05 04:40:06;;;;;;;7.70;6.78;;;;;;;12.67;100.00;100364.78;6300902;22;20019;-92
2023/05/05 04:42:38;;;;;;;10.07;7.07;;;;;;;12.46;100.00;100329.66;6267166;22;20011;-93
2023/05/05 04:45:08;;;;;;;10.40;6.88;;;;;;;12.75;100.00;100374.03;6295006;22;20030;-94
2023/05/05 04:47:35;;;;;;;;;;;;;;;12.84;100.00;100376.19;6288381;22;20012;-92
2023/05/05 04:50:02;;;;;;;9.52;7.03;;;;;;;12.88;100.00;100375.09;6287030;22;20217;-92
2023/05/05 04:52:34;;;;;;;8.75;6.78;;;;;;;12.90;100.00;100373.19;6288715;22;20015;-91
2023/05/05 04:55:10;;;;;;;10.15;6.63;;;;;;;12.97;100.00;100387.84;6288161;22;20019;-92
2023/05/05 04:57:38;;;;;;;11.52;7.07;;;;;;;12.95;100.00;100381.75;6263622;22;20097;-92
2023/05/05 05:00:10;;;;;;;9.15;6.70;;;;;;;12.97;100.00;100374.53;6290611;22;20050;-93
2023/05/05 05:02:37;;;;;;;11.00;7.07;;;;;;;13.09;100.00;100388.94;6299162;22;20091;-92
2023/05/05 05:05:06;;;;;;;11.27;7.75;;;;;;;13.13;100.00;100394.94;6300831;22;20046;-91
2023/05/05 05:07:39;;;;;;;12.82;7.68;;;;;;;12.89;100.00;100352.88;6297652;22;20018;-92
2023/05/05 05:10:08;;;;;;;13.45;8.30;;;;;;;13.20;100.00;100393.69;6294595;22;20042;-91
2023/05/05 05:12:49;;;;;;;13.00;7.30;;;;;;;13.22;100.00;100389.13;6292860;22;20063;-92
2023/05/05 05:15:24;;;;;;;13.60;7.63;;;;;;;13.05;100.00;100363.50;6292243;22;20042;-93
2023/05/05 05:17:56;;;;;;;14.63;7.43;;;;;;;13.28;100.00;100396.75;6289384;22;20011;-93
2023/05/05 05:20:24;;;;;;;10.20;6.93;;;;;;;13.32;100.00;100384.97;6261565;22;20018;-92
2023/05/05 05:22:51;;;;;;;13.10;7.57;;;;;;;13.33;100.00;100362.75;6295605;22;20058;-92
2023/05/05 05:25:19;;;;;;;10.52;7.47;;;;;;;13.63;100.00;100400.00;6300404;22;20027;-92
2023/05/05 05:27:47;;;;;;;14.55;7.00;;;;;;;13.74;100.00;100410.00;6300544;22;20022;-92
2023/05/05 05:30:30;;;;;;;15.00;7.75;;;;;;;13.83;100.00;100406.78;6279294;22;20019;-91
2023/05/05 05:33:05;;;;;;;9.98;7.40;;;;;;;13.81;100.00;100387.41;6295635;22;20012;-92
2023/05/05 05:35:33;;;;;;;10.82;7.20;;;;;;;13.92;100.00;100375.13;6269735;22;20067;-92
2023/05/05 05:38:03;;;;;;;13.68;7.82;;;;;;;14.19;98.45;100406.34;6269001;22;20027;-92
2023/05/05 05:40:36;;;;;;;10.15;7.28;;;;;;;14.15;99.58;100381.72;6293831;22;20030;-93
2023/05/05 05:43:15;;;;;;;11.25;7.00;;;;;;;14.33;100.00;100412.53;6291239;22;20341;-92
2023/05/05 05:45:46;;;;;;;12.23;7.72;;;;;;;14.28;97.28;100403.97;6264980;22;20015;-92
2023/05/05 05:48:15;;;;;;;9.77;7.38;;;;;;;14.39;92.96;100414.81;6263097;22;20292;-91
2023/05/05 05:51:14;;;;;;;8.18;7.05;;;;;;;14.38;91.07;100394.44;5003953;27;2779935;-92
2023/05/05 05:53:43;;;;;;;12.60;7.47;;;;;;;14.65;92.03;100423.00;5082664;28;20471;-92
2023/05/05 05:56:16;;;;;;;12.82;7.70;;;;;;;14.72;95.48;100421.69;5066820;28;20479;-92
2023/05/05 05:58:57;;;;;;;13.95;7.90;;;;;;;14.78;89.77;100428.44;5084012;28;20044;-92
2023/05/05 06:01:29;;;;;;;11.13;8.30;;;;;;;14.80;94.21;100434.50;5080673;28;20122;-93
2023/05/05 06:03:59;;;;;;;10.05;7.88;;;;;;;14.72;89.00;100430.53;5080114;28;20048;-91
2023/05/05 06:06:27;;;;;;;16.58;8.25;;;;;;;14.79;90.41;100432.81;5084010;28;20044;-91
2023/05/05 06:08:55;;;;;;;17.00;8.15;;;;;;;14.87;85.56;100442.03;5089998;28;20113;-92
2023/05/05 06:11:30;;;;;;;19.65;9.57;;;;;;;14.93;85.09;100433.66;5088844;28;20037;-91
2023/05/05 06:13:58;;;;;;;21.30;8.90;;;;;;;15.02;84.67;100417.03;5068960;28;20052;-91
2023/05/05 06:16:26;;;;;;;14.73;9.50;;;;;;;15.38;82.77;100440.44;5093843;28;20045;-92
2023/05/05 06:18:55;;;;;;;15.07;9.82;;;;;;;15.53;81.20;100443.91;5075971;28;20071;-91
2023/05/05 06:21:29;;;;;;;14.88;10.10;;;;;;;15.39;80.15;100414.63;5093403;28;20134;-92
2023/05/05 06:24:04;;;;;;;18.63;9.57;;;;;;;15.83;80.68;100456.19;5087476;28;20534;-91
2023/05/05 06:26:32;;;;;;;15.52;9.95;;;;;;;15.87;79.85;100455.03;5083186;28;20091;-94
2023/05/05 06:28:59;;;;;;;15.80;9.98;;;;;;;15.84;78.31;100439.22;5082629;28;20048;-94
2023/05/05 06:31:27;;;;;;;15.77;10.52;;;;;;;16.16;77.96;100455.72;5082502;28;20096;-92
2023/05/05 06:33:55;;;;;;;14.43;10.50;;;;;;;16.44;75.76;100453.66;5082676;28;20060;-92
2023/05/05 06:36:23;;;;;;;17.73;10.60;;;;;;;16.56;74.14;100448.41;5083157;28;20086;-93
2023/05/05 06:38:55;;;;;;;15.30;10.50;;;;;;;16.67;72.88;100428.03;5084344;28;20535;-93
2023/05/05 06:41:26;;;;;;;14.63;9.90;;;;;;;16.83;70.12;100422.44;5084959;28;20041;-92
2023/05/05 06:43:54;;;;;;;14.10;9.35;;;;;;;16.90;69.94;100410.31;5091802;28;20115;-91
2023/05/05 06:46:21;;;;;;;11.63;9.40;;;;;;;17.11;68.83;100408.75;5075411;28;20044;-92
2023/05/05 06:48:49;;;;;;;14.95;8.13;;;;;;;17.45;65.07;100417.78;5087394;28;20068;-92
2023/05/05 06:51:21;;;;;;;13.80;8.30;;;;;;;17.71;63.93;100423.88;5064160;28;20135;-92
2023/05/05 06:53:52;;;;;;;14.73;7.60;;;;;;;17.84;62.07;100429.13;5082835;28;20049;-93
2023/05/05 06:56:23;;;;;;;13.70;7.63;;;;;;;17.79;62.76;100408.06;5065991;28;20045;-93
2023/05/05 06:58:57;;;;;;;11.07;7.47;;;;;;;17.92;62.38;100396.41;5080452;28;20094;-93
2023/05/05 07:01:56;;;;;;;12.48;7.63;;;;;;;18.60;60.03;100446.47;5072918;28;20091;-91
2023/05/05 07:04:37;;;;;;;13.13;7.97;;;;;;;18.55;58.47;100394.03;5067561;28;20097;-93
2023/05/05 07:07:08;;;;;;;10.63;8.35;;;;;;;18.56;57.40;100429.75;5074475;28;20055;-93
2023/05/05 07:09:37;;;;;;;13.18;8.27;;;;;;;18.41;60.38;100406.84;5076117;28;20052;-92
2023/05/05 07:12:17;;;;;;;11.73;9.02;;;;;;;18.48;59.25;100459.84;5069592;28;20056;-92
2023/05/05 07:14:49;;;;;;;13.75;9.32;;;;;;;17.88;60.10;100375.22;5053104;28;20051;-93
2023/05/05 07:17:19;;;;;;;10.10;8.60;;;;;;;18.22;60.50;100402.06;5068644;28;20040;-92
2023/05/05 07:19:53;;;;;;;17.02;9.23;;;;;;;18.71;60.90;100451.84;5022028;28;20086;-93
2023/05/05 07:22:44;;;;;;;12.65;8.43;;;;;;;19.09;60.69;100448.72;5071223;28;20070;-93
2023/05/05 07:25:28;;;;;;;12.15;8.93;;;;;;;19.28;57.75;100425.63;5068134;28;20049;-93
2023/05/05 07:28:00;;;;;;;10.40;8.52;;;;;;;19.20;56.52;100403.91;5053428;28;20139;-92
2023/05/05 07:31:00;;;;;;;13.18;8.10;;;;;;;19.42;60.19;100440.59;5074242;28;20101;-92
2023/05/05 07:33:29;;;;;;;16.77;8.23;;;;;;;19.62;58.57;100436.28;5060329;28;20068;-93
2023/05/05 07:36:01;;;;;;;13.18;8.73;;;;;;;19.89;57.49;100450.06;5062110;28;20049;-91
2023/05/05 07:38:56;;;;;;;13.23;8.68;;;;;;;19.82;57.01;100432.78;5074287;27;20636;-91
2023/05/05 07:41:29;;;;;;;11.90;7.88;;;;;;;19.96;57.55;100400.19;5073238;28;20052;-92
2023/05/05 07:44:13;;;;;;;9.70;8.02;;;;;;;20.57;55.48;100429.84;5076303;28;20041;-93
2023/05/05 07:46:44;;;;;;;10.95;8.45;;;;;;;20.63;56.11;100444.59;5074377;28;20068;-92
2023/05/05 07:49:13;;;;;;;12.77;8.00;;;;;;;20.64;56.52;100452.53;5073523;28;20064;-92
2023/05/05 07:51:50;;;;;;;12.18;8.50;;;;;;;20.32;57.16;100435.63;5073403;28;20044;-93
2023/05/05 07:54:41;;;;;;;10.65;7.50;;;;;;;20.50;58.84;100444.81;5055412;28;20045;-93
2023/05/05 07:57:22;;;;;;;11.52;7.47;;;;;;;21.08;56.05;100422.66;5066074;28;20625;-91
2023/05/05 07:59:51;;;;;;;11.52;7.93;;;;;;;21.20;55.91;100441.28;5089290;28;20079;-92
2023/05/05 08:02:20;;;;;;;9.40;7.72;;;;;;;21.15;56.04;100434.56;5073280;28;20037;-92
2023/05/05 08:04:53;;;;;;;9.63;7.25;;;;;;;21.71;55.26;100440.19;5072570;28;20098;-92
2023/05/05 08:07:23;;;;;;;7.88;6.88;;;;;;;22.03;53.16;100442.59;5073008;28;20033;-91
2023/05/05 08:09:56;;;;;;;7.97;6.07;;;;;;;21.70;55.02;100439.34;5073999;28;20037;-92
2023/05/05 08:12:34;;;;;;;9.43;6.47;;;;;;;21.42;56.07;100440.16;5085392;28;20045;-91
2023/05/05 08:15:09;;;;;;;11.93;6.50;;;;;;;20.80;58.51;100414.34;5052492;28;20053;-92
2023/05/05 08:17:46;;;;;;;8.65;6.93;;;;;;;20.49;61.29;100418.91;5056775;28;20065;-92
2023/05/05 08:20:18;;;;;;;7.68;5.95;;;;;;;20.33;63.10;100427.44;5072935;28;20049;-92
2023/05/05 08:23:12;;;;;;;7.38;6.63;;;;;;;20.43;63.46;100432.91;5073393;28;20131;-91
2023/05/05 08:25:39;;;;;;;9.02;6.40;;;;;;;20.29;64.34;100427.84;5073180;28;20061;-91
2023/05/05 08:28:15;;;;;;;6.85;6.10;;;;;;;20.07;66.70;100441.44;5070094;28;20045;-93
2023/05/05 08:30:42;;;;;;;7.70;6.40;;;;;;;19.93;69.07;100438.09;5072686;28;20037;-91
2023/05/05 08:33:35;;;;;;;7.80;5.63;;;;;;;20.13;68.92;100424.78;5074318;28;20037;-93
2023/05/05 08:36:31;;;;;;;7.10;5.82;;;;;;;20.67;66.30;100448.72;5058991;28;20055;-91
2023/05/05 08:39:13;;;;;;;7.47;5.47;;;;;;;20.87;65.24;100434.34;5053394;28;20037;-92
2023/05/05 08:41:49;;;;;;;6.80;5.40;;;;;;;21.29;64.24;100431.50;5052989;28;20057;-91
2023/05/05 08:44:18;;;;;;;7.70;6.05;;;;;;;21.70;61.81;100439.34;5047776;28;20037;-91
2023/05/05 08:47:36;;;;;;;9.85;6.30;;;;;;;21.72;61.38;100438.34;5041734;28;20060;-93
2023/05/05 08:50:08;;;;;;;6.57;5.78;;;;;;;21.58;61.86;100436.91;5039890;28;20082;-92
2023/05/05 08:52:51;;;;;;;6.60;5.88;;;;;;;21.64;61.74;100421.03;5039085;28;20119;-93
2023/05/05 08:55:29;;;;;;;7.70;5.70;;;;;;;21.79;60.12;100436.75;5038074;28;20030;-93
2023/05/05 08:58:04;;;;;;;7.63;5.70;;;;;;;21.86;59.82;100441.47;5037818;28;20050;-93
2023/05/05 09:00:36;;;;;;;7.93;5.10;;;;;;;21.96;60.18;100449.53;5036358;28;20037;-94
2023/05/05 09:03:06;;;;;;;9.80;5.78;;;;;;;22.01;60.25;100440.06;5053574;28;20072;-92
2023/05/05 09:05:43;;;;;;;8.65;5.90;;;;;;;21.94;59.54;100406.53;5036617;28;20113;-93
2023/05/05 09:08:18;;;;;;;6.25;5.70;;;;;;;22.13;60.28;100432.66;5033153;28;20124;-93
2023/05/05 09:10:47;;;;;;;7.57;5.22;;;;;;;22.26;60.13;100433.19;5041310;28;20055;-93
2023/05/05 09:13:25;;;;;;;8.50;5.85;;;;;;;22.42;59.77;100426.31;5000542;28;20077;-93
2023/05/05 09:16:01;;;;;;;8.45;5.47;;;;;;;22.67;58.24;100436.44;5033592;28;20042;-93
2023/05/05 09:18:41;;;;;;;7.25;5.40;;;;;;;22.83;57.99;100441.22;5014424;28;20042;-91
2023/05/05 09:21:25;;;;;;;9.38;5.22;;;;;;;22.92;57.12;100427.69;5015306;28;20045;-90
2023/05/05 09:24:11;;;;;;;8.57;5.18;;;;;;;23.03;57.12;100432.03;5056958;28;20046;-92
2023/05/05 09:26:50;;;;;;;7.88;5.70;;;;;;;23.17;56.53;100434.22;5057759;28;20045;-91
2023/05/05 09:29:24;;;;;;;6.15;5.43;;;;;;;22.91;56.98;100434.09;5058684;28;20069;-92
2023/05/05 09:32:07;;;;;;;8.43;5.53;;;;;;;22.84;57.33;100430.28;5029390;28;20101;-93
2023/05/05 09:34:38;;;;;;;7.65;5.82;;;;;;;22.88;58.18;100426.28;5066420;28;20137;-92
2023/05/05 09:37:08;;;;;;;8.95;6.10;;;;;;;22.69;58.37;100388.56;5042968;28;20064;-92
2023/05/05 09:40:22;;;;;;;9.50;5.70;;;;;;;22.71;59.77;100422.50;5042218;28;20042;-94
2023/05/05 09:43:10;;;;;;;7.47;5.43;;;;;;;22.73;59.94;100428.59;5058786;28;20033;-93
2023/05/05 09:45:39;;;;;;;6.32;5.30;;;;;;;22.90;59.43;100416.19;5058033;28;20096;-92
2023/05/05 09:48:24;;;;;;;7.10;5.60;;;;;;;23.16;58.02;100416.31;5058259;28;20057;-92
2023/05/05 09:50:55;;;;;;;10.23;6.25;;;;;;;23.20;58.67;100412.31;5057693;28;20041;-91
2023/05/05 09:53:27;;;;;;;8.65;5.78;;;;;;;23.05;57.62;100376.00;5057831;28;20037;-93
2023/05/05 09:56:09;;;;;;;9.80;5.40;;;;;;;23.31;56.68;100398.56;5056881;28;20050;-91
2023/05/05 09:58:36;;;;;;;6.35;4.70;;;;;;;23.45;55.91;100410.72;5056509;28;20049;-92
2023/05/05 10:01:04;;;;;;;6.35;4.30;;;;;;;23.55;54.63;100402.56;5072038;28;20063;-92
2023/05/05 10:03:31;;;;;;;4.97;4.47;;;;;;;23.71;54.00;100405.41;5056751;28;20047;-93
2023/05/05 10:06:01;;;;;;;5.23;4.57;;;;;;;23.71;53.74;100378.38;5051725;28;20061;-94
2023/05/05 10:08:33;;;;;;;6.70;4.28;;;;;;;23.88;53.11;100396.41;5067293;28;20041;-92
2023/05/05 10:11:05;;;;;;;6.70;4.05;;;;;;;23.86;52.56;100382.19;5017506;28;20478;-93
2023/05/05 10:13:41;;;;;;;5.53;3.83;;;;;;;23.96;51.24;100365.84;5050161;28;20055;-92
2023/05/05 10:16:24;;;;;;;7.78;3.47;;;;;;;24.23;50.29;100378.41;5052309;28;20051;-91
2023/05/05 10:19:00;;;;;;;9.57;3.30;;;;;;;24.25;49.88;100376.38;5052761;28;20065;-93
2023/05/05 10:21:39;;;;;;;3.85;2.30;;;;;;;24.40;47.99;100364.78;5053617;28;20060;-91
2023/05/05 10:24:39;;;;;;;4.55;3.25;;;;;;;24.53;45.41;100358.97;5051634;28;20069;-92
2023/05/05 10:27:21;;;;;;;4.38;3.42;;;;;;;24.82;43.75;100362.13;5065466;28;20065;-94
2023/05/05 10:30:06;;;;;;;4.38;2.88;;;;;;;25.16;43.70;100367.50;5053617;28;20049;-92
2023/05/05 10:32:49;;;;;;;3.78;2.70;;;;;;;;;;5058442;28;20049;-92
2023/05/05 10:35:51;;;;;;;5.43;2.97;;;;;;;24.82;44.96;100358.56;5069904;28;20068;-93
2023/05/05 10:38:39;;;;;;;4.53;3.08;;;;;;;25.11;45.57;100355.44;5037498;28;20060;-93
2023/05/05 10:41:15;;;;;;;3.78;2.60;;;;;;;25.13;44.21;100340.72;5052473;28;20049;-92
2023/05/05 10:43:43;;;;;;;2.88;2.50;;;;;;;25.02;45.48;100351.88;5050904;28;20068;-92
2023/05/05 10:46:24;;;;;;;4.10;2.35;;;;;;;24.89;44.61;100320.81;5052593;28;20068;-92
2023/05/05 10:49:34;;;;;;;5.78;2.40;;;;;;;25.11;42.47;100331.06;5055333;28;20065;-92
2023/05/05 10:52:22;;;;;;;2.22;2.03;;;;;;;24.76;42.60;100294.22;5043848;28;20049;-92
2023/05/05 10:55:15;;;;;;;6.15;2.63;;;;;;;25.22;42.16;100303.63;5050406;28;20073;-92
2023/05/05 10:57:45;;;;;;;4.03;2.40;;;;;;;25.70;42.25;100348.03;5047064;28;20044;-94
2023/05/05 11:00:42;;;;;;;4.63;2.17;;;;;;;25.58;40.76;100343.97;5063070;28;20037;-92
2023/05/05 11:03:39;;;;;;;2.55;1.85;;;;;;;25.60;41.42;100344.63;5060785;28;20044;-93
2023/05/05 11:06:11;;;;;;;2.85;1.42;;;;;;;25.36;37.32;100340.88;5044574;28;20482;-92
2023/05/05 11:08:55;;;;;;;2.72;1.08;;;;;;;25.13;37.33;100337.16;5037771;28;20140;-92
2023/05/05 11:11:45;;;;;;;;;;;;;;;25.30;36.93;100338.03;5056153;28;20041;-92
2023/05/05 11:14:23;;;;;;;1.58;0.90;;;;;;;24.93;36.99;100331.16;5054381;28;19970;-94
2023/05/05 11:16:54;;;;;;;4.03;1.23;;;;;;;24.89;37.77;100310.81;5039243;28;20052;-93
2023/05/05 11:19:47;;;;;;;2.25;1.15;;;;;;;25.27;37.31;100324.81;5051415;28;20080;-94
2023/05/05 11:22:22;;;;;;;3.63;1.50;;;;;;;25.05;38.02;100320.88;5048089;28;20049;-93
2023/05/05 11:24:52;;;;;;;3.13;1.42;;;;;;;24.77;38.44;100295.91;5153360;23;20102;-93
2023/05/05 11:27:21;;;;;;;2.47;1.20;;;;;;;24.60;39.61;100292.31;5067705;28;20045;-93
2023/05/05 11:30:21;;;;;;;2.20;1.08;;;;;;;24.92;36.49;100317.78;5057236;28;20044;-93
2023/05/05 11:33:38;;;;;;;4.53;0.90;;;;;;;24.92;34.42;100241.94;5076426;28;20041;-94
2023/05/05 11:36:35;;;;;;;1.50;0.80;;;;;;;25.36;33.37;100286.69;5074676;28;20079;-94
2023/05/05 11:39:22;;;;;;;1.40;0.60;;;;;;;25.30;33.93;100276.53;5069612;28;20117;-94
2023/05/05 11:42:17;;;;;;;3.45;0.80;;;;;;;25.34;33.56;100244.53;5068102;28;20056;-95
2023/05/05 11:45:21;;;;;;;1.48;0.70;;;;;;;24.87;34.56;100228.88;5076677;28;20096;-95
2023/05/05 11:48:27;;;;;;;2.55;1.23;;;;;;;25.03;34.84;100302.06;5074168;28;20047;-93
2023/05/05 11:50:57;;;;;;;1.98;0.80;;;;;;;25.16;34.40;100298.88;5075227;28;20051;-94
2023/05/05 11:54:24;;;;;;;1.88;1.08;;;;;;;24.93;34.32;100258.00;5072203;28;20059;-95
2023/05/05 11:57:07;;;;;;;2.55;0.90;;;;;;;24.88;34.04;100306.41;5074079;28;20101;-93
2023/05/05 12:00:08;;;;;;;1.13;0.80;;;;;;;24.61;33.77;100294.00;5064597;28;20060;-90